sensor_id;sensor_type;location;lat;lon;timestamp;pressure;altitude;pressure_sealevel;temperature;humidity
1401;BME280;46518;48.842;8.926;2022-07-04T00:00:21;97314.22;;;21.41;58.34
1401;BME280;46518;48.842;8.926;2022-07-04T00:02:50;97309.66;;;21.41;58.04
1401;BME280;46518;48.842;8.926;2022-07-04T00:05:18;97307.38;;;21.26;58.77
1401;BME280;46518;48.842;8.926;2022-07-04T00:07:48;97311.44;;;21.15;59.40
1401;BME280;46518;48.842;8.926;2022-07-04T00:10:21;97306.69;;;21.11;59.35
1401;BME280;46518;48.842;8.926;2022-07-04T00:12:50;97301.09;;;21.22;58.79
1401;BME280;46518;48.842;8.926;2022-07-04T00:15:18;97302.16;;;21.12;59.72
1401;BME280;46518;48.842;8.926;2022-07-04T00:17:48;97288.09;;;21.06;59.14
1401;BME280;46518;48.842;8.926;2022-07-04T00:20:16;97274.53;;;21.03;59.23
1401;BME280;46518;48.842;8.926;2022-07-04T00:22:45;97275.47;;;20.98;59.43
1401;BME280;46518;48.842;8.926;2022-07-04T00:25:13;97289.47;;;20.95;60.15
1401;BME280;46518;48.842;8.926;2022-07-04T00:27:41;97290.22;;;20.87;59.95
1401;BME280;46518;48.842;8.926;2022-07-04T00:30:10;97298.41;;;20.90;59.99
1401;BME280;46518;48.842;8.926;2022-07-04T00:32:38;97297.94;;;20.88;60.38
1401;BME280;46518;48.842;8.926;2022-07-04T00:35:08;97302.19;;;20.89;59.87
1401;BME280;46518;48.842;8.926;2022-07-04T00:37:37;97287.72;;;20.90;59.89
1401;BME280;46518;48.842;8.926;2022-07-04T00:40:05;97295.75;;;20.90;59.70
1401;BME280;46518;48.842;8.926;2022-07-04T00:42:34;97294.97;;;20.90;59.50
1401;BME280;46518;48.842;8.926;2022-07-04T00:45:02;97305.03;;;20.93;59.70
1401;BME280;46518;48.842;8.926;2022-07-04T00:47:32;97303.53;;;20.78;59.56
1401;BME280;46518;48.842;8.926;2022-07-04T00:50:00;97312.94;;;20.67;60.73
1401;BME280;46518;48.842;8.926;2022-07-04T00:52:30;97306.34;;;20.73;59.79
1401;BME280;46518;48.842;8.926;2022-07-04T00:54:58;97310.94;;;20.81;59.61
1401;BME280;46518;48.842;8.926;2022-07-04T00:57:28;97305.56;;;20.73;59.54
1401;BME280;46518;48.842;8.926;2022-07-04T00:59:56;97308.13;;;20.78;59.29
1401;BME280;46518;48.842;8.926;2022-07-04T01:02:24;97306.53;;;20.77;59.58
1401;BME280;46518;48.842;8.926;2022-07-04T01:04:52;97305.22;;;20.65;59.46
1401;BME280;46518;48.842;8.926;2022-07-04T01:07:21;97317.81;;;20.65;59.69
1401;BME280;46518;48.842;8.926;2022-07-04T01:09:50;97303.06;;;20.54;59.92
1401;BME280;46518;48.842;8.926;2022-07-04T01:12:26;97305.13;;;20.34;60.53
1401;BME280;46518;48.842;8.926;2022-07-04T01:14:54;97310.84;;;20.41;60.30
1401;BME280;46518;48.842;8.926;2022-07-04T01:17:22;97295.53;;;20.33;60.16
1401;BME280;46518;48.842;8.926;2022-07-04T01:19:50;97305.13;;;20.34;60.66
1401;BME280;46518;48.842;8.926;2022-07-04T01:22:20;97293.88;;;20.23;61.51
1401;BME280;46518;48.842;8.926;2022-07-04T01:24:49;97304.47;;;20.29;61.22
1401;BME280;46518;48.842;8.926;2022-07-04T01:27:18;97297.66;;;20.22;61.46
1401;BME280;46518;48.842;8.926;2022-07-04T01:29:46;97299.22;;;20.23;61.71
1401;BME280;46518;48.842;8.926;2022-07-04T01:32:14;97306.97;;;20.25;61.14
1401;BME280;46518;48.842;8.926;2022-07-04T01:34:42;97309.75;;;20.20;61.52
1401;BME280;46518;48.842;8.926;2022-07-04T01:37:11;97313.31;;;20.15;61.85
1401;BME280;46518;48.842;8.926;2022-07-04T01:39:41;97312.28;;;20.02;61.85
1401;BME280;46518;48.842;8.926;2022-07-04T01:42:09;97317.19;;;20.09;61.96
1401;BME280;46518;48.842;8.926;2022-07-04T01:44:38;97316.13;;;20.10;62.28
1401;BME280;46518;48.842;8.926;2022-07-04T01:47:06;97318.03;;;19.96;62.99
1401;BME280;46518;48.842;8.926;2022-07-04T01:49:34;97331.22;;;19.92;62.91
1401;BME280;46518;48.842;8.926;2022-07-04T01:52:03;97322.50;;;19.87;62.63
1401;BME280;46518;48.842;8.926;2022-07-04T01:54:31;97335.16;;;19.95;62.48
1401;BME280;46518;48.842;8.926;2022-07-04T01:57:01;97339.41;;;19.96;62.16
1401;BME280;46518;48.842;8.926;2022-07-04T01:59:29;97333.06;;;19.92;61.92
1401;BME280;46518;48.842;8.926;2022-07-04T02:02:14;97327.38;;;19.85;63.01
1401;BME280;46518;48.842;8.926;2022-07-04T02:04:43;97334.56;;;19.84;63.28
1401;BME280;46518;48.842;8.926;2022-07-04T02:07:11;97331.53;;;19.77;63.45
1401;BME280;46518;48.842;8.926;2022-07-04T02:09:39;97334.09;;;19.82;63.36
1401;BME280;46518;48.842;8.926;2022-07-04T02:12:09;97339.22;;;19.78;63.43
1401;BME280;46518;48.842;8.926;2022-07-04T02:14:55;97333.50;;;19.71;63.76
1401;BME280;46518;48.842;8.926;2022-07-04T02:17:23;97332.50;;;19.53;64.71
1401;BME280;46518;48.842;8.926;2022-07-04T02:19:51;97347.63;;;19.58;64.44
1401;BME280;46518;48.842;8.926;2022-07-04T02:22:19;97346.06;;;19.43;65.06
1401;BME280;46518;48.842;8.926;2022-07-04T02:24:48;97349.44;;;19.35;65.64
1401;BME280;46518;48.842;8.926;2022-07-04T02:27:18;97354.16;;;19.38;65.62
1401;BME280;46518;48.842;8.926;2022-07-04T02:29:46;97353.16;;;19.34;65.48
1401;BME280;46518;48.842;8.926;2022-07-04T02:32:15;97347.53;;;19.22;65.62
1401;BME280;46518;48.842;8.926;2022-07-04T02:34:43;97364.72;;;19.29;65.56
1401;BME280;46518;48.842;8.926;2022-07-04T02:37:11;97367.00;;;19.36;65.32
1401;BME280;46518;48.842;8.926;2022-07-04T02:39:40;97369.19;;;19.20;65.83
1401;BME280;46518;48.842;8.926;2022-07-04T02:42:08;97367.00;;;19.22;65.48
1401;BME280;46518;48.842;8.926;2022-07-04T02:44:38;97363.44;;;19.13;65.92
1401;BME280;46518;48.842;8.926;2022-07-04T02:47:06;97377.38;;;19.10;66.37
1401;BME280;46518;48.842;8.926;2022-07-04T02:49:34;97365.88;;;19.09;65.83
1401;BME280;46518;48.842;8.926;2022-07-04T02:52:03;97380.03;;;19.10;66.22
1401;BME280;46518;48.842;8.926;2022-07-04T02:54:31;97369.53;;;19.00;66.49
1401;BME280;46518;48.842;8.926;2022-07-04T02:56:59;97377.59;;;18.94;66.83
1401;BME280;46518;48.842;8.926;2022-07-04T02:59:28;97376.41;;;18.87;67.29
1401;BME280;46518;48.842;8.926;2022-07-04T03:01:57;97373.81;;;18.82;67.21
1401;BME280;46518;48.842;8.926;2022-07-04T03:04:25;97363.81;;;18.73;68.04
1401;BME280;46518;48.842;8.926;2022-07-04T03:06:54;97367.94;;;18.85;66.85
1401;BME280;46518;48.842;8.926;2022-07-04T03:09:22;97374.63;;;18.82;67.59
1401;BME280;46518;48.842;8.926;2022-07-04T03:11:53;97364.34;;;18.75;67.50
1401;BME280;46518;48.842;8.926;2022-07-04T03:14:21;97377.13;;;18.73;68.20
1401;BME280;46518;48.842;8.926;2022-07-04T03:16:49;97383.81;;;18.57;68.49
1401;BME280;46518;48.842;8.926;2022-07-04T03:19:19;97377.81;;;18.46;68.57
1401;BME280;46518;48.842;8.926;2022-07-04T03:21:47;97382.56;;;18.49;68.77
1401;BME280;46518;48.842;8.926;2022-07-04T03:24:15;97384.31;;;18.40;69.08
1401;BME280;46518;48.842;8.926;2022-07-04T03:26:44;97392.06;;;18.37;69.07
1401;BME280;46518;48.842;8.926;2022-07-04T03:29:12;97396.94;;;18.35;68.95
1401;BME280;46518;48.842;8.926;2022-07-04T03:31:40;97398.25;;;18.32;69.19
1401;BME280;46518;48.842;8.926;2022-07-04T03:34:08;97389.88;;;18.25;69.13
1401;BME280;46518;48.842;8.926;2022-07-04T03:36:38;97400.59;;;18.20;69.66
1401;BME280;46518;48.842;8.926;2022-07-04T03:39:06;97395.38;;;18.09;69.87
1401;BME280;46518;48.842;8.926;2022-07-04T03:41:34;97400.44;;;18.11;69.99
1401;BME280;46518;48.842;8.926;2022-07-04T03:44:03;97396.75;;;18.07;69.89
1401;BME280;46518;48.842;8.926;2022-07-04T03:46:31;97402.31;;;18.10;69.92
1401;BME280;46518;48.842;8.926;2022-07-04T03:48:59;97402.50;;;18.14;69.61
1401;BME280;46518;48.842;8.926;2022-07-04T03:51:28;97398.56;;;18.11;69.59
1401;BME280;46518;48.842;8.926;2022-07-04T03:53:57;97400.00;;;18.23;68.67
1401;BME280;46518;48.842;8.926;2022-07-04T03:56:25;97406.72;;;18.20;69.12
1401;BME280;46518;48.842;8.926;2022-07-04T03:58:54;97412.09;;;18.15;69.20
1401;BME280;46518;48.842;8.926;2022-07-04T04:01:22;97404.91;;;18.16;68.87
1401;BME280;46518;48.842;8.926;2022-07-04T04:03:50;97409.13;;;18.17;68.98
1401;BME280;46518;48.842;8.926;2022-07-04T04:06:36;97403.88;;;18.11;68.45
1401;BME280;46518;48.842;8.926;2022-07-04T04:09:05;97410.56;;;18.09;69.19
1401;BME280;46518;48.842;8.926;2022-07-04T04:11:36;97410.50;;;17.95;70.05
1401;BME280;46518;48.842;8.926;2022-07-04T04:14:04;97407.59;;;17.92;68.72
1401;BME280;46518;48.842;8.926;2022-07-04T04:16:32;97409.34;;;18.01;69.08
1401;BME280;46518;48.842;8.926;2022-07-04T04:19:00;97419.66;;;18.08;68.69
1401;BME280;46518;48.842;8.926;2022-07-04T04:21:29;97428.84;;;17.97;69.47
1401;BME280;46518;48.842;8.926;2022-07-04T04:23:57;97430.50;;;17.93;69.52
1401;BME280;46518;48.842;8.926;2022-07-04T04:26:26;97443.56;;;17.89;69.86
1401;BME280;46518;48.842;8.926;2022-07-04T04:28:54;97432.47;;;17.82;69.74
1401;BME280;46518;48.842;8.926;2022-07-04T04:31:23;97452.59;;;17.93;70.43
1401;BME280;46518;48.842;8.926;2022-07-04T04:33:51;97453.63;;;17.97;70.67
1401;BME280;46518;48.842;8.926;2022-07-04T04:36:19;97463.97;;;17.99;71.73
1401;BME280;46518;48.842;8.926;2022-07-04T04:38:47;97454.09;;;17.99;69.67
1401;BME280;46518;48.842;8.926;2022-07-04T04:41:16;97470.06;;;17.99;71.18
1401;BME280;46518;48.842;8.926;2022-07-04T04:43:45;97471.69;;;18.00;69.97
1401;BME280;46518;48.842;8.926;2022-07-04T04:46:18;97471.28;;;17.88;68.89
1401;BME280;46518;48.842;8.926;2022-07-04T04:48:47;97478.06;;;17.99;68.78
1401;BME280;46518;48.842;8.926;2022-07-04T04:51:15;97482.47;;;17.90;69.60
1401;BME280;46518;48.842;8.926;2022-07-04T04:53:43;97473.94;;;17.88;69.25
1401;BME280;46518;48.842;8.926;2022-07-04T04:56:12;97478.50;;;17.87;69.63
1401;BME280;46518;48.842;8.926;2022-07-04T04:58:40;97467.69;;;17.74;70.17
1401;BME280;46518;48.842;8.926;2022-07-04T05:01:09;97470.59;;;17.72;69.91
1401;BME280;46518;48.842;8.926;2022-07-04T05:03:57;97480.94;;;17.79;71.50
1401;BME280;46518;48.842;8.926;2022-07-04T05:06:25;97487.59;;;17.81;71.62
1401;BME280;46518;48.842;8.926;2022-07-04T05:08:54;97487.59;;;17.81;72.02
1401;BME280;46518;48.842;8.926;2022-07-04T05:11:22;97486.03;;;17.75;71.74
1401;BME280;46518;48.842;8.926;2022-07-04T05:13:50;97482.59;;;17.75;71.94
1401;BME280;46518;48.842;8.926;2022-07-04T05:16:19;97482.63;;;17.69;71.61
1401;BME280;46518;48.842;8.926;2022-07-04T05:18:48;97482.28;;;17.76;72.12
1401;BME280;46518;48.842;8.926;2022-07-04T05:21:16;97489.47;;;17.81;71.74
1401;BME280;46518;48.842;8.926;2022-07-04T05:23:45;97483.09;;;17.77;72.07
1401;BME280;46518;48.842;8.926;2022-07-04T05:26:13;97486.47;;;17.87;71.61
1401;BME280;46518;48.842;8.926;2022-07-04T05:28:41;97476.81;;;17.92;71.62
1401;BME280;46518;48.842;8.926;2022-07-04T05:31:09;97482.22;;;18.10;70.46
1401;BME280;46518;48.842;8.926;2022-07-04T05:33:39;97462.19;;;18.13;69.40
1401;BME280;46518;48.842;8.926;2022-07-04T05:36:08;97471.66;;;18.24;69.89
1401;BME280;46518;48.842;8.926;2022-07-04T05:38:36;97454.72;;;18.15;69.00
1401;BME280;46518;48.842;8.926;2022-07-04T05:41:05;97470.00;;;18.28;68.49
1401;BME280;46518;48.842;8.926;2022-07-04T05:43:33;97459.06;;;18.30;69.23
1401;BME280;46518;48.842;8.926;2022-07-04T05:46:02;97468.66;;;18.50;67.31
1401;BME280;46518;48.842;8.926;2022-07-04T05:48:31;97483.75;;;18.79;65.54
1401;BME280;46518;48.842;8.926;2022-07-04T05:51:02;97473.59;;;18.81;64.44
1401;BME280;46518;48.842;8.926;2022-07-04T05:53:30;97468.03;;;18.77;66.66
1401;BME280;46518;48.842;8.926;2022-07-04T05:55:58;97475.28;;;18.71;66.66
1401;BME280;46518;48.842;8.926;2022-07-04T05:58:26;97470.25;;;18.89;66.14
1401;BME280;46518;48.842;8.926;2022-07-04T06:00:54;97459.75;;;19.11;64.46
1401;BME280;46518;48.842;8.926;2022-07-04T06:03:22;97465.81;;;19.17;63.62
1401;BME280;46518;48.842;8.926;2022-07-04T06:05:51;97468.31;;;19.27;63.38
1401;BME280;46518;48.842;8.926;2022-07-04T06:08:21;97466.34;;;19.33;62.97
1401;BME280;46518;48.842;8.926;2022-07-04T06:10:50;97464.06;;;19.26;62.95
1401;BME280;46518;48.842;8.926;2022-07-04T06:13:18;97460.78;;;19.15;63.16
1401;BME280;46518;48.842;8.926;2022-07-04T06:15:46;97465.47;;;19.37;62.34
1401;BME280;46518;48.842;8.926;2022-07-04T06:18:14;97465.16;;;19.39;63.00
1401;BME280;46518;48.842;8.926;2022-07-04T06:20:43;97464.59;;;19.42;62.19
1401;BME280;46518;48.842;8.926;2022-07-04T06:23:11;97468.47;;;19.50;62.02
1401;BME280;46518;48.842;8.926;2022-07-04T06:25:40;97465.81;;;19.50;62.33
1401;BME280;46518;48.842;8.926;2022-07-04T06:28:09;97464.69;;;19.51;61.23
1401;BME280;46518;48.842;8.926;2022-07-04T06:30:57;97461.53;;;19.49;61.38
1401;BME280;46518;48.842;8.926;2022-07-04T06:33:25;97475.88;;;19.53;62.96
1401;BME280;46518;48.842;8.926;2022-07-04T06:35:53;97474.13;;;19.62;62.16
1401;BME280;46518;48.842;8.926;2022-07-04T06:38:24;97470.44;;;19.58;62.67
1401;BME280;46518;48.842;8.926;2022-07-04T06:40:56;97471.06;;;19.69;62.52
1401;BME280;46518;48.842;8.926;2022-07-04T06:43:25;97469.50;;;19.81;62.13
1401;BME280;46518;48.842;8.926;2022-07-04T06:45:54;97474.66;;;19.78;61.13
1401;BME280;46518;48.842;8.926;2022-07-04T06:48:22;97471.19;;;19.77;60.46
1401;BME280;46518;48.842;8.926;2022-07-04T06:50:51;97479.91;;;19.83;60.29
1401;BME280;46518;48.842;8.926;2022-07-04T06:53:19;97466.59;;;19.64;60.61
1401;BME280;46518;48.842;8.926;2022-07-04T06:55:47;97474.25;;;19.71;60.10
1401;BME280;46518;48.842;8.926;2022-07-04T06:58:17;97477.59;;;19.63;62.34
1401;BME280;46518;48.842;8.926;2022-07-04T07:00:46;97480.53;;;19.61;62.60
1401;BME280;46518;48.842;8.926;2022-07-04T07:03:14;97475.63;;;19.68;63.05
1401;BME280;46518;48.842;8.926;2022-07-04T07:05:43;97475.56;;;19.87;61.04
1401;BME280;46518;48.842;8.926;2022-07-04T07:08:28;97472.69;;;19.70;61.26
1401;BME280;46518;48.842;8.926;2022-07-04T07:10:57;97462.97;;;19.74;61.96
1401;BME280;46518;48.842;8.926;2022-07-04T07:13:42;97471.97;;;19.92;60.51
1401;BME280;46518;48.842;8.926;2022-07-04T07:16:11;97465.66;;;20.01;61.73
1401;BME280;46518;48.842;8.926;2022-07-04T07:18:39;97456.44;;;19.94;60.81
1401;BME280;46518;48.842;8.926;2022-07-04T07:21:07;97454.56;;;20.08;60.35
1401;BME280;46518;48.842;8.926;2022-07-04T07:23:38;97461.19;;;20.11;60.57
1401;BME280;46518;48.842;8.926;2022-07-04T07:26:07;97459.63;;;20.10;60.24
1401;BME280;46518;48.842;8.926;2022-07-04T07:28:35;97448.22;;;20.04;60.38
1401;BME280;46518;48.842;8.926;2022-07-04T07:31:05;97450.69;;;20.14;60.91
1401;BME280;46518;48.842;8.926;2022-07-04T07:33:33;97456.41;;;20.21;60.70
1401;BME280;46518;48.842;8.926;2022-07-04T07:36:02;97460.00;;;20.17;60.96
1401;BME280;46518;48.842;8.926;2022-07-04T07:38:30;97459.09;;;20.21;59.50
1401;BME280;46518;48.842;8.926;2022-07-04T07:40:58;97455.13;;;20.19;60.80
1401;BME280;46518;48.842;8.926;2022-07-04T07:43:26;97455.03;;;20.24;60.79
1401;BME280;46518;48.842;8.926;2022-07-04T07:45:55;97449.13;;;20.13;60.70
1401;BME280;46518;48.842;8.926;2022-07-04T07:48:25;97443.28;;;20.25;60.27
1401;BME280;46518;48.842;8.926;2022-07-04T07:50:54;97443.16;;;20.16;60.48
1401;BME280;46518;48.842;8.926;2022-07-04T07:53:22;97443.16;;;20.16;60.98
1401;BME280;46518;48.842;8.926;2022-07-04T07:55:50;97455.03;;;20.24;60.43
1401;BME280;46518;48.842;8.926;2022-07-04T07:58:19;97459.81;;;20.27;59.96
1401;BME280;46518;48.842;8.926;2022-07-04T08:00:47;97451.19;;;20.16;61.22
1401;BME280;46518;48.842;8.926;2022-07-04T08:03:21;97459.59;;;20.23;61.51
1401;BME280;46518;48.842;8.926;2022-07-04T08:06:09;97450.38;;;20.30;61.21
1401;BME280;46518;48.842;8.926;2022-07-04T08:08:39;97447.72;;;20.30;61.26
1401;BME280;46518;48.842;8.926;2022-07-04T08:11:07;97456.31;;;20.40;61.26
1401;BME280;46518;48.842;8.926;2022-07-04T08:13:36;97450.06;;;20.31;61.45
1401;BME280;46518;48.842;8.926;2022-07-04T08:16:05;97442.84;;;20.32;60.92
1401;BME280;46518;48.842;8.926;2022-07-04T08:18:33;97454.31;;;20.46;60.92
1401;BME280;46518;48.842;8.926;2022-07-04T08:21:02;97444.50;;;20.41;60.95
1401;BME280;46518;48.842;8.926;2022-07-04T08:23:40;97445.72;;;20.35;61.34
1401;BME280;46518;48.842;8.926;2022-07-04T08:26:28;97430.31;;;20.18;63.58
1401;BME280;46518;48.842;8.926;2022-07-04T08:28:57;97441.66;;;20.24;63.33
1401;BME280;46518;48.842;8.926;2022-07-04T08:31:26;97439.28;;;20.36;60.24
1401;BME280;46518;48.842;8.926;2022-07-04T08:34:15;97443.94;;;20.44;59.34
1401;BME280;46518;48.842;8.926;2022-07-04T08:36:43;97438.16;;;20.51;59.32
1401;BME280;46518;48.842;8.926;2022-07-04T08:39:13;97428.63;;;20.59;60.03
1401;BME280;46518;48.842;8.926;2022-07-04T08:41:41;97427.25;;;20.61;59.41
1401;BME280;46518;48.842;8.926;2022-07-04T08:44:10;97436.00;;;20.76;58.70
1401;BME280;46518;48.842;8.926;2022-07-04T08:46:39;97428.38;;;20.83;58.46
1401;BME280;46518;48.842;8.926;2022-07-04T08:49:14;97420.47;;;20.78;59.07
1401;BME280;46518;48.842;8.926;2022-07-04T08:51:51;97421.66;;;20.72;60.93
1401;BME280;46518;48.842;8.926;2022-07-04T08:54:24;97426.34;;;20.88;60.18
1401;BME280;46518;48.842;8.926;2022-07-04T08:57:11;97419.97;;;20.98;58.61
1401;BME280;46518;48.842;8.926;2022-07-04T08:59:57;97424.28;;;21.08;59.51
1401;BME280;46518;48.842;8.926;2022-07-04T09:02:27;97425.69;;;21.05;60.16
1401;BME280;46518;48.842;8.926;2022-07-04T09:04:56;97432.56;;;21.29;58.13
1401;BME280;46518;48.842;8.926;2022-07-04T09:07:26;97418.84;;;21.22;58.52
1401;BME280;46518;48.842;8.926;2022-07-04T09:09:56;97435.59;;;21.36;60.75
1401;BME280;46518;48.842;8.926;2022-07-04T09:12:25;97435.38;;;21.46;59.14
1401;BME280;46518;48.842;8.926;2022-07-04T09:14:53;97432.38;;;21.39;60.80
1401;BME280;46518;48.842;8.926;2022-07-04T09:17:22;97437.88;;;21.43;60.87
1401;BME280;46518;48.842;8.926;2022-07-04T09:20:14;97439.06;;;21.37;61.47
1401;BME280;46518;48.842;8.926;2022-07-04T09:22:44;97449.25;;;21.26;61.47
1401;BME280;46518;48.842;8.926;2022-07-04T09:25:14;97451.31;;;21.29;61.39
1401;BME280;46518;48.842;8.926;2022-07-04T09:27:45;97450.28;;;21.39;60.95
1401;BME280;46518;48.842;8.926;2022-07-04T09:30:16;97440.13;;;21.49;59.93
1401;BME280;46518;48.842;8.926;2022-07-04T09:32:46;97446.66;;;21.66;59.17
1401;BME280;46518;48.842;8.926;2022-07-04T09:35:17;97444.75;;;21.66;55.34
1401;BME280;46518;48.842;8.926;2022-07-04T09:37:46;97454.69;;;21.66;56.16
1401;BME280;46518;48.842;8.926;2022-07-04T09:40:24;97447.06;;;21.90;58.15
1401;BME280;46518;48.842;8.926;2022-07-04T09:42:53;97440.75;;;21.95;56.19
1401;BME280;46518;48.842;8.926;2022-07-04T09:45:21;97452.16;;;22.09;54.95
1401;BME280;46518;48.842;8.926;2022-07-04T09:47:53;97449.78;;;22.16;54.32
1401;BME280;46518;48.842;8.926;2022-07-04T09:50:24;97459.16;;;22.28;54.03
1401;BME280;46518;48.842;8.926;2022-07-04T09:52:54;97452.69;;;22.20;53.60
1401;BME280;46518;48.842;8.926;2022-07-04T09:55:25;97459.47;;;22.26;53.44
1401;BME280;46518;48.842;8.926;2022-07-04T09:57:55;97445.44;;;22.29;54.46
1401;BME280;46518;48.842;8.926;2022-07-04T10:00:25;97447.81;;;22.39;54.10
1401;BME280;46518;48.842;8.926;2022-07-04T10:02:56;97462.66;;;22.46;53.94
1401;BME280;46518;48.842;8.926;2022-07-04T10:05:26;97441.19;;;22.46;55.08
1401;BME280;46518;48.842;8.926;2022-07-04T10:07:56;97450.84;;;22.64;54.12
1401;BME280;46518;48.842;8.926;2022-07-04T10:10:33;97456.34;;;22.76;54.28
1401;BME280;46518;48.842;8.926;2022-07-04T10:13:04;97448.28;;;22.76;55.10
1401;BME280;46518;48.842;8.926;2022-07-04T10:15:34;97459.34;;;22.83;53.03
1401;BME280;46518;48.842;8.926;2022-07-04T10:18:05;97461.25;;;22.92;52.07
1401;BME280;46518;48.842;8.926;2022-07-04T10:20:34;97448.00;;;23.04;52.42
1401;BME280;46518;48.842;8.926;2022-07-04T10:23:02;97458.25;;;23.11;52.11
1401;BME280;46518;48.842;8.926;2022-07-04T10:25:32;97442.63;;;23.13;55.19
1401;BME280;46518;48.842;8.926;2022-07-04T10:28:00;97462.03;;;23.27;51.08
1401;BME280;46518;48.842;8.926;2022-07-04T10:30:31;97455.56;;;23.19;49.74
1401;BME280;46518;48.842;8.926;2022-07-04T10:33:07;97449.56;;;23.22;50.17
1401;BME280;46518;48.842;8.926;2022-07-04T10:35:50;97457.69;;;23.43;49.71
1401;BME280;46518;48.842;8.926;2022-07-04T10:38:23;97457.09;;;23.38;50.81
1401;BME280;46518;48.842;8.926;2022-07-04T10:40:55;97456.75;;;23.48;54.28
1401;BME280;46518;48.842;8.926;2022-07-04T10:43:52;97447.25;;;23.51;51.22
1401;BME280;46518;48.842;8.926;2022-07-04T10:46:31;97450.66;;;23.68;55.98
1401;BME280;46518;48.842;8.926;2022-07-04T10:49:03;97451.91;;;23.80;52.42
1401;BME280;46518;48.842;8.926;2022-07-04T10:51:37;97442.25;;;23.79;50.48
1401;BME280;46518;48.842;8.926;2022-07-04T10:54:08;97439.50;;;23.96;50.75
1401;BME280;46518;48.842;8.926;2022-07-04T10:56:40;97451.47;;;24.07;52.94
1401;BME280;46518;48.842;8.926;2022-07-04T10:59:12;97448.59;;;24.13;49.47
1401;BME280;46518;48.842;8.926;2022-07-04T11:01:52;97454.56;;;24.18;50.22
1401;BME280;46518;48.842;8.926;2022-07-04T11:04:50;97448.94;;;24.32;49.56
1401;BME280;46518;48.842;8.926;2022-07-04T11:07:19;97441.66;;;24.32;48.70
1401;BME280;46518;48.842;8.926;2022-07-04T11:10:19;97434.53;;;24.37;50.54
1401;BME280;46518;48.842;8.926;2022-07-04T11:13:14;97415.28;;;24.26;47.57
1401;BME280;46518;48.842;8.926;2022-07-04T11:16:01;97435.78;;;24.09;47.43
1401;BME280;46518;48.842;8.926;2022-07-04T11:18:38;97433.84;;;23.89;49.98
1401;BME280;46518;48.842;8.926;2022-07-04T11:21:24;97427.13;;;23.74;51.06
1401;BME280;46518;48.842;8.926;2022-07-04T11:23:54;97417.72;;;23.89;49.21
1401;BME280;46518;48.842;8.926;2022-07-04T11:26:23;97420.06;;;23.90;52.84
1401;BME280;46518;48.842;8.926;2022-07-04T11:28:53;97420.53;;;23.93;49.59
1401;BME280;46518;48.842;8.926;2022-07-04T11:31:38;97415.38;;;23.79;50.95
1401;BME280;46518;48.842;8.926;2022-07-04T11:34:07;97415.06;;;23.80;49.65
1401;BME280;46518;48.842;8.926;2022-07-04T11:36:38;97416.31;;;23.83;48.25
1401;BME280;46518;48.842;8.926;2022-07-04T11:39:07;97421.38;;;23.84;49.88
1401;BME280;46518;48.842;8.926;2022-07-04T11:41:37;97412.47;;;23.93;49.39
1401;BME280;46518;48.842;8.926;2022-07-04T11:44:27;97402.09;;;23.82;48.41
1401;BME280;46518;48.842;8.926;2022-07-04T11:47:15;97405.16;;;24.02;51.35
1401;BME280;46518;48.842;8.926;2022-07-04T11:49:46;97402.94;;;24.04;48.64
1401;BME280;46518;48.842;8.926;2022-07-04T11:52:16;97380.78;;;24.07;49.20
1401;BME280;46518;48.842;8.926;2022-07-04T11:55:06;97388.25;;;24.22;47.73
1401;BME280;46518;48.842;8.926;2022-07-04T11:57:36;97389.63;;;24.28;49.19
1401;BME280;46518;48.842;8.926;2022-07-04T12:00:08;97383.94;;;24.30;51.43
1401;BME280;46518;48.842;8.926;2022-07-04T12:02:43;97386.50;;;24.47;46.37
1401;BME280;46518;48.842;8.926;2022-07-04T12:05:13;97378.34;;;24.56;45.76
1401;BME280;46518;48.842;8.926;2022-07-04T12:07:43;97380.31;;;24.68;46.46
1401;BME280;46518;48.842;8.926;2022-07-04T12:10:32;97370.72;;;24.79;46.65
1401;BME280;46518;48.842;8.926;2022-07-04T12:13:02;97368.84;;;24.92;46.94
1401;BME280;46518;48.842;8.926;2022-07-04T12:15:38;97358.88;;;25.05;47.42
1401;BME280;46518;48.842;8.926;2022-07-04T12:18:16;97356.81;;;25.23;46.84
1401;BME280;46518;48.842;8.926;2022-07-04T12:20:45;97360.28;;;25.35;46.08
1401;BME280;46518;48.842;8.926;2022-07-04T12:23:14;97353.00;;;25.36;46.11
1401;BME280;46518;48.842;8.926;2022-07-04T12:25:45;97354.13;;;25.47;45.84
1401;BME280;46518;48.842;8.926;2022-07-04T12:28:15;97348.28;;;25.45;45.52
1401;BME280;46518;48.842;8.926;2022-07-04T12:30:51;97333.47;;;25.39;45.08
1401;BME280;46518;48.842;8.926;2022-07-04T12:33:21;97332.25;;;25.36;44.75
1401;BME280;46518;48.842;8.926;2022-07-04T12:35:51;97334.94;;;25.36;45.12
1401;BME280;46518;48.842;8.926;2022-07-04T12:38:21;97338.97;;;25.43;47.52
1401;BME280;46518;48.842;8.926;2022-07-04T12:40:56;97338.88;;;25.51;45.25
1401;BME280;46518;48.842;8.926;2022-07-04T12:43:25;97304.16;;;25.50;44.63
1401;BME280;46518;48.842;8.926;2022-07-04T12:45:56;97317.19;;;25.60;47.04
1401;BME280;46518;48.842;8.926;2022-07-04T12:48:26;97304.94;;;25.63;46.71
1401;BME280;46518;48.842;8.926;2022-07-04T12:51:09;97305.47;;;25.80;46.37
1401;BME280;46518;48.842;8.926;2022-07-04T12:53:44;97308.38;;;26.00;46.17
1401;BME280;46518;48.842;8.926;2022-07-04T12:56:27;97304.91;;;25.99;46.47
1401;BME280;46518;48.842;8.926;2022-07-04T12:58:56;97308.13;;;26.05;47.41
1401;BME280;46518;48.842;8.926;2022-07-04T13:01:26;97303.53;;;26.06;46.12
1401;BME280;46518;48.842;8.926;2022-07-04T13:03:55;97292.88;;;25.97;44.66
1401;BME280;46518;48.842;8.926;2022-07-04T13:06:27;97275.56;;;25.98;45.36
1401;BME280;46518;48.842;8.926;2022-07-04T13:08:56;97285.78;;;26.04;44.65
1401;BME280;46518;48.842;8.926;2022-07-04T13:11:30;97290.13;;;26.21;44.28
1401;BME280;46518;48.842;8.926;2022-07-04T13:14:16;97277.06;;;26.23;44.28
1401;BME280;46518;48.842;8.926;2022-07-04T13:16:46;97283.88;;;26.33;44.40
1401;BME280;46518;48.842;8.926;2022-07-04T13:19:14;97283.72;;;26.42;43.45
1401;BME280;46518;48.842;8.926;2022-07-04T13:21:44;97280.25;;;26.41;44.16
1401;BME280;46518;48.842;8.926;2022-07-04T13:24:14;97282.25;;;26.44;43.79
1401;BME280;46518;48.842;8.926;2022-07-04T13:26:43;97281.66;;;26.51;43.88
1401;BME280;46518;48.842;8.926;2022-07-04T13:29:11;97293.03;;;26.44;42.95